LIPH/TSF METAR and TAF weather

Enter ICAO airport designator
Station Type Date Time Source
LIPH METAR 2021/09/16 10:50 UTC NOAA

LIPH 161050Z VRB02KT 5000 -RA BR SCT030 SCT060 22/20 Q1016


Station Type Date Time Source
LIPH Decoded METAR 2021/09/16 10:50 UTC NOAA

Treviso / S. Angelo, Italy (LIPH) 45-39N 012-11E 23M
Sep 16, 2021 - 06:50 AM EDT / 2021.09.16 1050 UTC
Wind: Variable at 2 MPH (2 KT):0
Visibility: 3 mile(s):0
Sky conditions: partly cloudy
Weather: light rain; mist
Temperature: 71 F (22 C)
Dew Point: 68 F (20 C)
Relative Humidity: 88%
Pressure (altimeter): 30.00 in. Hg (1016 hPa)
ob: LIPH 161050Z VRB02KT 5000 -RA BR SCT030 SCT060 22/20 Q1016
cycle: 11

Station Type Date Time Source
LIPH TAF 2021/09/16 06:25 UTC NOAA

TAF LIPH 160500Z 1606/1706 VRB05KT 6000 SCT030
TEMPO 1606/1608 2000 BR BKN002
TEMPO 1609/1612 SHRA
TEMPO 1612/1622 TSRA

Example: see airport list